createdAt,value
2019-02-04T00:00:49.435Z,14.03
2019-02-04T00:02:52.778Z,18.87
2019-02-04T00:04:54.532Z,16.73
2019-02-04T00:06:56.191Z,17.30
2019-02-04T00:08:57.919Z,21.70
2019-02-04T00:10:59.584Z,15.00
2019-02-04T00:13:01.266Z,24.60
2019-02-04T00:15:06.995Z,18.40
2019-02-04T00:17:09.139Z,20.60
2019-02-04T00:19:10.857Z,18.45
2019-02-04T00:21:12.743Z,24.00
2019-02-04T00:23:14.421Z,17.87
2019-02-04T00:25:16.116Z,18.52
2019-02-04T00:27:17.837Z,19.02
2019-02-04T00:29:19.631Z,23.77
2019-02-04T00:31:21.489Z,24.67
2019-02-04T00:33:23.195Z,17.65
2019-02-04T00:35:25.081Z,23.30
2019-02-04T00:37:26.744Z,26.60
2019-02-04T00:39:28.798Z,22.02
2019-02-04T00:41:30.594Z,22.93
2019-02-04T00:43:32.451Z,18.32
2019-02-04T00:45:34.185Z,25.20
2019-02-04T00:47:35.572Z,22.52
2019-02-04T00:49:36.963Z,25.43
2019-02-04T00:51:38.448Z,21.93
2019-02-04T00:53:39.819Z,24.75
2019-02-04T00:55:41.188Z,22.67
2019-02-04T00:57:42.628Z,15.78
2019-02-04T00:59:43.999Z,19.65
2019-02-04T01:01:45.384Z,19.23
2019-02-04T01:03:46.907Z,18.17
2019-02-04T01:05:48.281Z,21.37
2019-02-04T01:07:49.960Z,25.20
2019-02-04T01:09:52.041Z,18.65
2019-02-04T01:11:53.416Z,22.05
2019-02-04T01:13:54.784Z,18.32
2019-02-04T01:15:56.286Z,25.10
2019-02-04T01:17:58.276Z,27.02
2019-02-04T01:19:59.706Z,24.18
2019-02-04T01:22:01.291Z,25.00
2019-02-04T01:24:03.055Z,28.40
2019-02-04T01:26:04.605Z,33.90
2019-02-04T01:28:05.967Z,27.70
2019-02-04T01:30:20.040Z,27.55
2019-02-04T01:32:21.446Z,27.05
2019-02-04T01:34:22.815Z,28.70
2019-02-04T01:36:24.201Z,29.65
2019-02-04T01:38:26.027Z,27.35
2019-02-04T01:40:27.390Z,26.57
2019-02-04T01:42:28.817Z,28.77
2019-02-04T01:44:30.190Z,31.55
2019-02-04T01:46:31.548Z,31.60
2019-02-04T01:48:32.958Z,34.95
2019-02-04T01:50:34.321Z,30.00
2019-02-04T01:52:35.746Z,23.22
2019-02-04T01:54:37.113Z,27.15
2019-02-04T01:56:38.475Z,22.02
2019-02-04T01:58:40.062Z,30.75
2019-02-04T02:00:41.434Z,21.42
2019-02-04T02:02:42.797Z,18.10
2019-02-04T02:04:44.765Z,18.17
2019-02-04T02:06:46.156Z,21.68
2019-02-04T02:08:47.528Z,19.27
2019-02-04T02:10:49.196Z,20.77
2019-02-04T02:12:51.060Z,20.10
2019-02-04T02:14:52.446Z,19.35
2019-02-04T02:16:54.084Z,18.90
2019-02-04T02:18:55.633Z,18.40
2019-02-04T02:20:57.011Z,19.92
2019-02-04T02:22:58.690Z,18.52
2019-02-04T02:25:00.144Z,23.50
2019-02-04T02:27:01.633Z,19.65
2019-02-04T02:29:03.175Z,20.70
2019-02-04T02:31:04.844Z,24.82
2019-02-04T02:33:06.223Z,123.70
2019-02-04T02:35:09.755Z,98.25
2019-02-04T02:37:11.138Z,69.95
2019-02-04T02:39:12.665Z,32.10
2019-02-04T02:41:14.024Z,19.05
2019-02-04T02:43:15.386Z,24.55
2019-02-04T02:45:16.895Z,27.37
2019-02-04T02:47:18.278Z,24.60
2019-02-04T02:49:19.644Z,25.72
2019-02-04T02:51:21.049Z,20.43
2019-02-04T02:53:22.465Z,24.18
2019-02-04T02:55:23.933Z,16.20
2019-02-04T02:57:25.696Z,17.67
2019-02-04T02:59:27.064Z,21.48
2019-02-04T03:01:28.639Z,15.65
2019-02-04T03:03:30.011Z,16.00
2019-02-04T03:05:31.684Z,18.70
2019-02-04T03:07:33.109Z,17.60
2019-02-04T03:09:34.499Z,17.30
2019-02-04T03:11:35.853Z,17.65
2019-02-04T03:13:37.254Z,17.82
2019-02-04T03:15:38.615Z,17.90
2019-02-04T03:17:51.561Z,21.37
2019-02-04T03:19:43.518Z,17.67
2019-02-04T03:21:44.895Z,20.50
2019-02-04T03:23:46.675Z,17.48
2019-02-04T03:25:48.114Z,13.45
2019-02-04T03:27:49.590Z,18.95
2019-02-04T03:29:50.972Z,14.53
2019-02-04T03:31:52.595Z,17.02
2019-02-04T03:33:53.971Z,17.65
2019-02-04T03:35:55.334Z,18.98
2019-02-04T03:37:56.749Z,17.12
2019-02-04T03:39:58.163Z,19.92
2019-02-04T03:41:59.522Z,23.10
2019-02-04T03:44:00.895Z,20.43
2019-02-04T03:46:02.425Z,16.57
2019-02-04T03:48:06.961Z,15.68
2019-02-04T03:50:10.441Z,15.40
2019-02-04T03:52:11.881Z,17.17
2019-02-04T03:54:13.222Z,18.30
2019-02-04T03:56:14.638Z,15.03
2019-02-04T03:58:16.104Z,17.10
2019-02-04T04:00:22.376Z,15.28
2019-02-04T04:02:23.975Z,18.10
2019-02-04T04:04:25.357Z,19.57
2019-02-04T04:06:26.740Z,18.45
2019-02-04T04:08:28.157Z,19.90
2019-02-04T04:10:29.508Z,17.32
2019-02-04T04:12:30.889Z,17.77
2019-02-04T04:14:32.318Z,17.65
2019-02-04T04:16:33.678Z,18.80
2019-02-04T04:18:35.041Z,22.40
2019-02-04T04:20:36.717Z,20.72
2019-02-04T04:22:38.274Z,17.95
2019-02-04T04:24:39.642Z,21.25
2019-02-04T04:26:41.054Z,24.50
2019-02-04T04:28:42.421Z,24.98
2019-02-04T04:30:43.835Z,20.68
2019-02-04T04:32:45.326Z,18.12
2019-02-04T04:34:47.062Z,24.30
2019-02-04T04:36:48.523Z,19.37
2019-02-04T04:38:49.905Z,21.50
2019-02-04T04:40:51.275Z,17.92
2019-02-04T04:42:52.679Z,21.40
2019-02-04T04:44:54.047Z,29.20
2019-02-04T04:46:55.423Z,24.52
2019-02-04T04:48:56.842Z,24.18
2019-02-04T04:50:58.208Z,23.18
2019-02-04T04:52:59.568Z,25.85
2019-02-04T04:55:01.040Z,31.95
2019-02-04T04:57:02.417Z,24.32
2019-02-04T04:59:03.980Z,23.65
2019-02-04T05:01:05.705Z,26.27
2019-02-04T05:03:07.067Z,26.45
2019-02-04T05:05:11.451Z,28.10
2019-02-04T05:07:12.864Z,32.48
2019-02-04T05:09:14.244Z,27.22
2019-02-04T05:11:15.615Z,31.02
2019-02-04T05:13:17.035Z,29.50
2019-02-04T05:15:24.777Z,18.70
2019-02-04T05:17:26.135Z,26.85
2019-02-04T05:19:27.964Z,21.90
2019-02-04T05:21:29.574Z,23.02
2019-02-04T05:23:30.963Z,29.07
2019-02-04T05:25:32.317Z,25.77
2019-02-04T05:27:33.723Z,25.25
2019-02-04T05:29:35.098Z,24.05
2019-02-04T05:31:36.570Z,21.25
2019-02-04T05:33:38.054Z,21.82
2019-02-04T05:35:39.411Z,24.65
2019-02-04T05:37:40.983Z,22.07
2019-02-04T05:39:42.404Z,19.12
2019-02-04T05:41:43.771Z,25.02
2019-02-04T05:43:45.124Z,26.48
2019-02-04T05:45:46.838Z,21.73
2019-02-04T05:47:48.339Z,26.95
2019-02-04T05:49:49.700Z,24.43
2019-02-04T05:51:51.292Z,33.70
2019-02-04T05:53:52.659Z,33.23
2019-02-04T05:55:54.012Z,26.73
2019-02-04T05:57:55.425Z,26.65
2019-02-04T05:59:56.794Z,26.80
2019-02-04T06:01:58.249Z,26.70
2019-02-04T06:03:59.647Z,30.97
2019-02-04T06:06:01.028Z,16.50
2019-02-04T06:08:03.021Z,20.37
2019-02-04T06:10:08.323Z,20.10
2019-02-04T06:12:10.043Z,25.05
2019-02-04T06:14:11.396Z,28.38
2019-02-04T06:16:12.777Z,22.95
2019-02-04T06:18:14.172Z,24.07
2019-02-04T06:20:21.243Z,22.37
2019-02-04T06:22:22.764Z,21.65
2019-02-04T06:24:24.126Z,22.25
2019-02-04T06:26:25.535Z,21.10
2019-02-04T06:28:26.890Z,24.90
2019-02-04T06:30:28.553Z,24.00
2019-02-04T06:32:29.957Z,27.70
2019-02-04T06:34:31.333Z,23.85
2019-02-04T06:36:32.689Z,23.50
2019-02-04T06:38:34.102Z,26.68
2019-02-04T06:40:35.456Z,34.15
2019-02-04T06:42:36.827Z,22.60
2019-02-04T06:44:38.401Z,24.95
2019-02-04T06:46:39.763Z,24.30
2019-02-04T06:48:41.123Z,24.72
2019-02-04T06:50:42.546Z,24.10
2019-02-04T06:52:44.111Z,26.05
2019-02-04T06:54:45.462Z,27.65
2019-02-04T06:56:47.186Z,32.05
2019-02-04T06:58:48.544Z,32.80
2019-02-04T07:00:49.951Z,22.80
2019-02-04T07:02:51.428Z,26.55
2019-02-04T07:04:53.093Z,25.75
2019-02-04T07:06:54.497Z,31.17
2019-02-04T07:08:55.855Z,26.70
2019-02-04T07:10:57.228Z,24.57
2019-02-04T07:12:58.916Z,41.05
2019-02-04T07:15:00.291Z,37.67
2019-02-04T07:17:01.652Z,27.27
2019-02-04T07:19:03.344Z,31.48
2019-02-04T07:21:04.732Z,34.10
2019-02-04T07:23:06.097Z,36.00
2019-02-04T07:25:11.671Z,26.50
2019-02-04T07:27:13.070Z,34.63
2019-02-04T07:29:14.437Z,31.93
2019-02-04T07:31:16.150Z,26.17
2019-02-04T07:33:17.515Z,29.05
2019-02-04T07:35:19.479Z,28.70
2019-02-04T07:37:20.898Z,34.80
2019-02-04T07:39:22.566Z,26.50
2019-02-04T07:41:23.933Z,32.15
2019-02-04T07:43:25.342Z,30.82
2019-02-04T07:45:27.001Z,33.80
2019-02-04T07:47:28.363Z,31.55
2019-02-04T07:49:35.161Z,22.42
2019-02-04T07:51:33.085Z,28.70
2019-02-04T07:53:34.463Z,29.72
2019-02-04T07:55:35.835Z,35.78
2019-02-04T07:57:37.446Z,30.80
2019-02-04T07:59:38.812Z,28.00
2019-02-04T08:01:40.178Z,32.45
2019-02-04T08:03:41.567Z,31.05
2019-02-04T08:05:43.244Z,30.95
2019-02-04T08:07:44.641Z,29.05
2019-02-04T08:09:46.043Z,30.25
2019-02-04T08:11:47.502Z,29.65
2019-02-04T08:13:49.112Z,29.77
2019-02-04T08:15:50.475Z,34.63
2019-02-04T08:17:52.646Z,35.08
2019-02-04T08:19:54.090Z,34.50
2019-02-04T08:21:55.445Z,35.58
2019-02-04T08:23:56.816Z,39.13
2019-02-04T08:25:58.213Z,28.65
2019-02-04T08:27:59.664Z,31.15
2019-02-04T08:30:01.029Z,32.60
2019-02-04T08:32:03.233Z,32.33
2019-02-04T08:34:04.639Z,38.00
2019-02-04T08:36:06.404Z,26.77
2019-02-04T08:38:07.791Z,27.17
2019-02-04T08:40:13.715Z,22.75
2019-02-04T08:42:15.260Z,19.95
2019-02-04T08:44:16.619Z,29.40
2019-02-04T08:46:18.014Z,24.40
2019-02-04T08:48:19.376Z,26.33
2019-02-04T08:50:24.438Z,26.35
2019-02-04T08:52:25.956Z,20.32
2019-02-04T08:54:27.342Z,18.25
2019-02-04T08:56:28.828Z,19.98
2019-02-04T08:58:30.307Z,21.60
2019-02-04T09:00:31.784Z,17.30
2019-02-04T09:02:33.131Z,16.35
2019-02-04T09:04:37.036Z,19.25
2019-02-04T09:06:37.857Z,16.52
2019-02-04T09:08:39.236Z,15.45
2019-02-04T09:10:40.653Z,12.65
2019-02-04T09:12:42.055Z,19.25
2019-02-04T09:14:43.853Z,16.37
2019-02-04T09:16:45.211Z,15.30
2019-02-04T09:18:46.610Z,13.22
2019-02-04T09:20:47.970Z,16.93
2019-02-04T09:22:49.655Z,19.87
2019-02-04T09:24:51.035Z,13.55
2019-02-04T09:26:52.495Z,19.50
2019-02-04T09:28:53.936Z,16.40
2019-02-04T09:30:55.299Z,15.18
2019-02-04T09:32:58.255Z,12.07
2019-02-04T09:34:59.660Z,15.88
2019-02-04T09:37:01.130Z,14.00
2019-02-04T09:39:06.399Z,11.60
2019-02-04T09:41:08.220Z,14.78
2019-02-04T09:43:09.803Z,18.67
2019-02-04T09:45:15.172Z,11.60
2019-02-04T09:47:16.568Z,12.68
2019-02-04T09:49:18.224Z,10.53
2019-02-04T09:51:19.606Z,11.95
2019-02-04T09:53:20.972Z,8.20
2019-02-04T09:55:26.882Z,12.30
2019-02-04T09:57:28.265Z,20.27
2019-02-04T09:59:29.723Z,8.00
2019-02-04T10:01:31.191Z,9.63
2019-02-04T10:03:32.547Z,6.75
2019-02-04T10:05:34.650Z,9.85
2019-02-04T10:07:36.377Z,8.28
2019-02-04T10:09:37.782Z,9.33
2019-02-04T10:11:39.196Z,7.55
2019-02-04T10:13:40.578Z,7.83
2019-02-04T10:15:45.675Z,6.42
2019-02-04T10:17:46.828Z,10.00
2019-02-04T10:19:48.326Z,5.97
2019-02-04T10:21:49.855Z,7.60
2019-02-04T10:23:51.362Z,5.67
2019-02-04T10:25:53.174Z,7.75
2019-02-04T10:27:54.709Z,7.70
2019-02-04T10:29:56.146Z,9.45
2019-02-04T10:31:57.524Z,8.75
2019-02-04T10:33:59.193Z,4.58
2019-02-04T10:36:00.721Z,4.10
2019-02-04T10:38:02.532Z,11.68
2019-02-04T10:40:20.250Z,6.67
2019-02-04T10:42:21.641Z,4.97
2019-02-04T10:44:23.085Z,7.25
2019-02-04T10:46:24.441Z,5.78
2019-02-04T10:48:25.853Z,14.28
2019-02-04T10:50:45.743Z,7.65
2019-02-04T10:52:41.713Z,5.45
2019-02-04T10:54:43.069Z,7.58
2019-02-04T10:56:44.502Z,5.70
2019-02-04T10:58:45.961Z,4.40
2019-02-04T11:00:47.505Z,5.58
2019-02-04T11:02:49.161Z,5.35
2019-02-04T11:04:50.532Z,10.00
2019-02-04T11:06:51.994Z,5.10
2019-02-04T11:08:53.379Z,7.20
2019-02-04T11:10:55.058Z,8.97
2019-02-04T11:12:57.054Z,4.10
2019-02-04T11:14:58.398Z,4.93
2019-02-04T11:16:59.813Z,4.50
2019-02-04T11:19:01.170Z,6.80
2019-02-04T11:21:03.264Z,8.10
2019-02-04T11:23:06.999Z,5.50
2019-02-04T11:25:08.824Z,5.27
2019-02-04T11:27:10.370Z,4.90
2019-02-04T11:29:11.913Z,5.90
2019-02-04T11:31:13.416Z,8.43
2019-02-04T11:33:14.764Z,3.50
2019-02-04T11:35:16.566Z,5.10
2019-02-04T11:37:17.933Z,7.07
2019-02-04T11:39:19.596Z,5.83
2019-02-04T11:41:21.041Z,5.07
2019-02-04T11:43:22.513Z,8.13
2019-02-04T11:45:24.221Z,5.13
2019-02-04T11:47:25.919Z,5.23
2019-02-04T11:49:27.242Z,5.40
2019-02-04T11:51:28.608Z,5.73
2019-02-04T11:53:32.891Z,8.60
2019-02-04T11:55:33.388Z,6.37
2019-02-04T11:57:35.109Z,7.53
2019-02-04T11:59:36.471Z,7.27
2019-02-04T12:01:37.860Z,10.50
2019-02-04T12:03:39.227Z,7.50
2019-02-04T12:05:41.104Z,7.90
2019-02-04T12:07:42.480Z,8.03
2019-02-04T12:09:43.870Z,8.43
2019-02-04T12:11:48.227Z,8.00
2019-02-04T12:13:49.631Z,7.50
2019-02-04T12:15:51.997Z,7.80
2019-02-04T12:17:53.528Z,7.20
2019-02-04T12:19:54.996Z,8.93
2019-02-04T12:21:56.417Z,7.90
2019-02-04T12:23:57.799Z,7.13
2019-02-04T12:25:59.227Z,7.30
2019-02-04T12:28:00.651Z,6.90
2019-02-04T12:30:22.634Z,7.47
2019-02-04T12:32:24.000Z,7.77
2019-02-04T12:34:25.409Z,8.93
2019-02-04T12:36:26.946Z,11.93
2019-02-04T12:38:28.314Z,9.30
2019-02-04T12:40:29.675Z,8.40
2019-02-04T12:42:31.068Z,9.10
2019-02-04T12:44:32.448Z,9.37
2019-02-04T12:46:33.855Z,8.80
2019-02-04T12:48:35.247Z,8.70
2019-02-04T12:50:36.722Z,9.40
2019-02-04T12:52:38.177Z,12.70
2019-02-04T12:54:39.534Z,10.97
2019-02-04T12:56:40.863Z,9.97
2019-02-04T12:58:42.326Z,11.03
2019-02-04T13:00:45.575Z,11.70
2019-02-04T13:02:47.037Z,12.90
2019-02-04T13:04:48.431Z,10.27
2019-02-04T13:06:49.891Z,11.03
2019-02-04T13:08:51.271Z,15.77
2019-02-04T13:10:52.749Z,10.77
2019-02-04T13:12:54.350Z,14.87
2019-02-04T13:14:55.873Z,10.70
2019-02-04T13:16:57.240Z,12.67
2019-02-04T13:18:58.611Z,11.50
2019-02-04T13:21:00.004Z,11.60
2019-02-04T13:23:01.365Z,12.93
2019-02-04T13:25:07.256Z,11.60
2019-02-04T13:27:08.915Z,11.17
2019-02-04T13:29:10.340Z,13.03
2019-02-04T13:31:11.943Z,12.00
2019-02-04T13:33:13.303Z,11.03
2019-02-04T13:35:15.281Z,12.80
2019-02-04T13:37:16.745Z,13.53
2019-02-04T13:39:18.097Z,11.77
2019-02-04T13:41:19.863Z,11.77
2019-02-04T13:43:21.235Z,14.77
2019-02-04T13:45:22.803Z,13.80
2019-02-04T13:47:24.216Z,12.93
2019-02-04T13:49:25.575Z,14.87
2019-02-04T13:51:26.950Z,15.50
2019-02-04T13:53:29.757Z,11.93
2019-02-04T13:55:33.927Z,11.70
2019-02-04T13:57:35.308Z,12.03
2019-02-04T13:59:36.719Z,13.87
2019-02-04T14:01:38.287Z,14.30
2019-02-04T14:03:39.650Z,14.67
2019-02-04T14:05:41.008Z,11.93
2019-02-04T14:07:42.436Z,12.70
2019-02-04T14:09:44.095Z,10.27
2019-02-04T14:11:45.760Z,10.87
2019-02-04T14:13:47.244Z,12.87
2019-02-04T14:15:48.681Z,13.20
2019-02-04T14:17:50.037Z,13.30
2019-02-04T14:19:51.507Z,11.23
2019-02-04T14:21:52.922Z,14.60
2019-02-04T14:23:54.288Z,16.00
2019-02-04T14:25:55.649Z,15.03
2019-02-04T14:27:57.941Z,12.47
2019-02-04T14:29:59.317Z,13.23
2019-02-04T14:32:00.677Z,14.87
2019-02-04T14:34:02.186Z,16.03
2019-02-04T14:36:03.551Z,13.97
2019-02-04T14:38:05.582Z,16.87
2019-02-04T14:40:18.106Z,21.00
2019-02-04T14:42:13.776Z,16.77
2019-02-04T14:44:18.449Z,14.83
2019-02-04T14:46:28.578Z,14.20
2019-02-04T14:48:50.525Z,15.07
2019-02-04T14:51:24.424Z,14.03
2019-02-04T14:53:43.441Z,15.83
2019-02-04T14:55:59.412Z,14.00
2019-02-04T14:58:06.474Z,14.87
2019-02-04T15:00:42.688Z,15.43
2019-02-04T15:02:52.639Z,13.70
2019-02-04T15:04:59.716Z,19.02
2019-02-04T15:07:23.656Z,15.53
2019-02-04T15:10:03.262Z,15.75
2019-02-04T15:12:16.429Z,15.80
2019-02-04T15:14:46.940Z,14.63
2019-02-04T15:17:00.059Z,14.73
2019-02-04T15:19:25.052Z,17.60
2019-02-04T15:22:04.282Z,17.40
2019-02-04T15:24:40.927Z,15.63
2019-02-04T15:27:13.359Z,13.75
2019-02-04T15:29:22.962Z,14.80
2019-02-04T15:31:44.555Z,17.73
2019-02-04T15:33:57.493Z,13.53
2019-02-04T15:36:22.427Z,11.85
2019-02-04T15:38:29.646Z,17.67
2019-02-04T15:40:42.041Z,16.40
2019-02-04T15:43:23.156Z,13.13
2019-02-04T15:45:42.857Z,19.00
2019-02-04T15:47:52.984Z,15.38
2019-02-04T15:50:21.112Z,14.68
2019-02-04T15:52:22.705Z,17.05
2019-02-04T15:54:24.297Z,15.50
2019-02-04T15:56:25.652Z,17.20
2019-02-04T15:58:27.171Z,15.48
2019-02-04T16:00:28.656Z,15.20
2019-02-04T16:02:30.028Z,15.85
2019-02-04T16:04:34.714Z,15.13
2019-02-04T16:06:36.075Z,15.38
2019-02-04T16:08:37.455Z,21.60
2019-02-04T16:10:39.316Z,16.37
2019-02-04T16:12:40.675Z,23.67
2019-02-04T16:14:42.048Z,17.52
2019-02-04T16:16:43.608Z,16.02
2019-02-04T16:18:45.167Z,19.07
2019-02-04T16:20:46.540Z,19.12
2019-02-04T16:22:57.950Z,13.03
2019-02-04T16:24:51.582Z,15.83
2019-02-04T16:26:52.948Z,19.10
2019-02-04T16:28:54.376Z,18.42
2019-02-04T16:30:55.789Z,19.20
2019-02-04T16:32:57.150Z,19.52
2019-02-04T16:34:58.575Z,14.80
2019-02-04T16:37:00.396Z,21.25
2019-02-04T16:39:03.981Z,15.83
2019-02-04T16:41:05.341Z,12.90
2019-02-04T16:43:06.710Z,16.70
2019-02-04T16:45:12.847Z,18.70
2019-02-04T16:47:14.225Z,13.85
2019-02-04T16:49:15.615Z,15.40
2019-02-04T16:51:17.020Z,18.73
2019-02-04T16:53:18.390Z,16.27
2019-02-04T16:55:19.855Z,16.52
2019-02-04T16:57:21.292Z,16.15
2019-02-04T16:59:22.655Z,16.80
2019-02-04T17:01:24.016Z,14.23
2019-02-04T17:03:25.850Z,19.00
2019-02-04T17:05:27.409Z,15.85
2019-02-04T17:07:28.772Z,15.83
2019-02-04T17:09:30.347Z,21.30
2019-02-04T17:11:32.100Z,17.10
2019-02-04T17:13:33.467Z,17.20
2019-02-04T17:15:35.015Z,16.30
2019-02-04T17:17:36.381Z,16.37
2019-02-04T17:19:37.958Z,17.27
2019-02-04T17:21:39.594Z,13.65
2019-02-04T17:23:40.980Z,15.80
2019-02-04T17:25:42.326Z,16.62
2019-02-04T17:27:43.868Z,14.87
2019-02-04T17:29:45.329Z,17.02
2019-02-04T17:31:46.783Z,15.98
2019-02-04T17:33:48.207Z,14.47
2019-02-04T17:35:49.575Z,19.98
2019-02-04T17:37:50.945Z,13.78
2019-02-04T17:39:52.494Z,14.50
2019-02-04T17:41:54.071Z,12.53
2019-02-04T17:43:55.538Z,14.83
2019-02-04T17:45:57.447Z,14.05
2019-02-04T17:47:58.817Z,12.98
2019-02-04T17:50:00.325Z,17.35
2019-02-04T17:52:01.840Z,15.60
2019-02-04T17:54:05.228Z,12.90
2019-02-04T17:56:06.883Z,18.80
2019-02-04T17:58:08.410Z,17.87
2019-02-04T18:00:21.040Z,19.32
2019-02-04T18:02:22.460Z,17.77
2019-02-04T18:04:23.979Z,12.88
2019-02-04T18:06:25.668Z,16.70
2019-02-04T18:08:27.055Z,18.62
2019-02-04T18:10:28.411Z,15.70
2019-02-04T18:12:29.828Z,14.18
2019-02-04T18:14:31.246Z,14.73
2019-02-04T18:16:32.725Z,14.68
2019-02-04T18:18:34.084Z,16.02
2019-02-04T18:20:35.569Z,19.27
2019-02-04T18:22:38.834Z,18.92
2019-02-04T18:24:40.200Z,19.67
2019-02-04T18:26:41.915Z,15.75
2019-02-04T18:28:43.279Z,18.67
2019-02-04T18:30:44.645Z,16.65
2019-02-04T18:32:46.381Z,12.33
2019-02-04T18:34:47.759Z,15.03
2019-02-04T18:36:49.319Z,15.58
2019-02-04T18:38:50.737Z,15.53
2019-02-04T18:40:52.103Z,15.55
2019-02-04T18:42:53.573Z,14.05
2019-02-04T18:44:55.098Z,16.87
2019-02-04T18:46:56.462Z,13.38
2019-02-04T18:48:57.828Z,16.73
2019-02-04T18:50:59.245Z,15.25
2019-02-04T18:53:00.688Z,17.75
2019-02-04T18:55:04.266Z,12.03
2019-02-04T18:57:05.644Z,18.50
2019-02-04T18:59:07.476Z,18.92
2019-02-04T19:01:08.939Z,19.67
2019-02-04T19:03:17.457Z,19.10
2019-02-04T19:05:14.322Z,14.25
2019-02-04T19:07:15.785Z,20.08
2019-02-04T19:09:17.167Z,14.30
2019-02-04T19:11:18.589Z,18.77
2019-02-04T19:13:19.950Z,16.02
2019-02-04T19:15:26.894Z,19.02
2019-02-04T19:17:28.328Z,15.72
2019-02-04T19:19:29.743Z,21.37
2019-02-04T19:21:31.108Z,15.18
2019-02-04T19:23:32.487Z,16.82
2019-02-04T19:25:34.344Z,18.95
2019-02-04T19:27:35.812Z,15.85
2019-02-04T19:29:37.174Z,19.07
2019-02-04T19:31:38.605Z,14.15
2019-02-04T19:33:40.294Z,18.50
2019-02-04T19:35:41.653Z,16.12
2019-02-04T19:37:43.105Z,16.37
2019-02-04T19:39:44.461Z,18.40
2019-02-04T19:41:45.829Z,18.50
2019-02-04T19:43:47.254Z,23.00
2019-02-04T19:45:48.642Z,16.50
2019-02-04T19:47:51.125Z,16.62
2019-02-04T19:49:52.555Z,18.55
2019-02-04T19:51:55.252Z,16.10
2019-02-04T19:53:56.792Z,16.10
2019-02-04T19:55:58.469Z,17.20
2019-02-04T19:57:59.838Z,19.30
2019-02-04T20:00:05.022Z,17.80
2019-02-04T20:02:06.400Z,17.12
2019-02-04T20:04:07.754Z,19.07
2019-02-04T20:06:09.473Z,20.68
2019-02-04T20:08:10.918Z,17.67
2019-02-04T20:10:15.963Z,20.80
2019-02-04T20:12:17.493Z,22.82
2019-02-04T20:14:18.879Z,18.45
2019-02-04T20:16:20.245Z,17.87
2019-02-04T20:18:21.788Z,16.80
2019-02-04T20:20:24.168Z,17.52
2019-02-04T20:22:25.518Z,20.10
2019-02-04T20:24:33.237Z,16.25
2019-02-04T20:26:30.488Z,17.75
2019-02-04T20:28:31.872Z,18.57
2019-02-04T20:30:46.114Z,19.98
2019-02-04T20:32:46.386Z,19.90
2019-02-04T20:34:47.832Z,18.85
2019-02-04T20:36:49.566Z,15.63
2019-02-04T20:38:51.037Z,18.60
2019-02-04T20:40:52.411Z,20.70
2019-02-04T20:42:54.063Z,16.37
2019-02-04T20:44:55.720Z,17.37
2019-02-04T20:46:57.108Z,14.73
2019-02-04T20:49:00.442Z,14.80
2019-02-04T20:51:01.823Z,18.07
2019-02-04T20:53:03.588Z,18.02
2019-02-04T20:55:05.527Z,16.23
2019-02-04T20:57:06.892Z,13.88
2019-02-04T20:59:08.410Z,17.87
2019-02-04T21:01:09.844Z,12.53
2019-02-04T21:03:11.306Z,16.30
2019-02-04T21:05:13.335Z,17.05
2019-02-04T21:07:14.701Z,15.13
2019-02-04T21:09:16.068Z,19.62
2019-02-04T21:11:17.984Z,14.98
2019-02-04T21:13:19.361Z,19.23
2019-02-04T21:15:22.242Z,15.38
2019-02-04T21:17:23.655Z,15.25
2019-02-04T21:19:25.331Z,13.85
2019-02-04T21:21:26.770Z,15.60
2019-02-04T21:23:28.143Z,17.73
2019-02-04T21:25:29.514Z,14.13
2019-02-04T21:27:30.951Z,14.43
2019-02-04T21:29:32.729Z,12.98
2019-02-04T21:31:34.092Z,11.50
2019-02-04T21:33:35.513Z,15.40
2019-02-04T21:35:37.063Z,13.03
2019-02-04T21:37:38.431Z,13.88
2019-02-04T21:39:39.894Z,14.75
2019-02-04T21:41:41.257Z,14.13
2019-02-04T21:43:42.617Z,10.32
2019-02-04T21:45:44.469Z,13.30
2019-02-04T21:47:46.347Z,12.58
2019-02-04T21:49:47.710Z,13.15
2019-02-04T21:51:49.139Z,14.68
2019-02-04T21:53:50.712Z,12.13
2019-02-04T21:55:53.205Z,11.50
2019-02-04T21:57:54.738Z,14.07
2019-02-04T21:59:56.114Z,10.32
2019-02-04T22:01:57.469Z,13.58
2019-02-04T22:03:58.905Z,16.27
2019-02-04T22:06:00.270Z,12.30
2019-02-04T22:08:01.636Z,13.62
2019-02-04T22:10:11.602Z,14.58
2019-02-04T22:12:12.981Z,12.75
2019-02-04T22:14:14.355Z,13.80
2019-02-04T22:16:16.024Z,13.10
2019-02-04T22:18:17.407Z,12.20
2019-02-04T22:20:19.566Z,19.75
2019-02-04T22:22:22.037Z,13.90
2019-02-04T22:24:23.406Z,17.23
2019-02-04T22:26:24.779Z,11.53
2019-02-04T22:28:26.461Z,14.53
2019-02-04T22:30:29.228Z,10.70
2019-02-04T22:32:30.593Z,11.60
2019-02-04T22:34:32.038Z,13.35
2019-02-04T22:36:33.587Z,11.00
2019-02-04T22:38:34.990Z,11.15
2019-02-04T22:40:36.504Z,10.20
2019-02-04T22:42:37.857Z,12.18
2019-02-04T22:44:39.222Z,10.50
2019-02-04T22:46:40.640Z,11.55
2019-02-04T22:48:43.095Z,11.50
2019-02-04T22:50:44.644Z,9.85
2019-02-04T22:52:46.140Z,13.83
2019-02-04T22:54:48.243Z,12.20
2019-02-04T22:56:49.616Z,12.78
2019-02-04T22:58:52.288Z,10.55
2019-02-04T23:01:02.372Z,10.75
2019-02-04T23:03:03.734Z,14.05
2019-02-04T23:05:05.595Z,15.50
2019-02-04T23:07:07.314Z,8.18
2019-02-04T23:09:08.812Z,11.57
2019-02-04T23:11:10.268Z,10.03
2019-02-04T23:13:12.090Z,15.38
2019-02-04T23:15:13.447Z,12.13
2019-02-04T23:17:14.779Z,9.98
2019-02-04T23:19:16.189Z,9.38
2019-02-04T23:21:17.592Z,8.70
2019-02-04T23:23:19.087Z,13.38
2019-02-04T23:25:20.473Z,13.05
2019-02-04T23:27:21.879Z,10.25
2019-02-04T23:29:23.245Z,11.22
2019-02-04T23:31:24.614Z,10.80
2019-02-04T23:33:33.886Z,11.08
2019-02-04T23:35:29.287Z,16.60
2019-02-04T23:37:30.647Z,8.88
2019-02-04T23:39:32.369Z,11.78
2019-02-04T23:41:33.869Z,11.30
2019-02-04T23:43:35.236Z,10.20
2019-02-04T23:45:36.608Z,11.10
2019-02-04T23:47:38.036Z,10.58
2019-02-04T23:49:39.711Z,11.43
2019-02-04T23:51:41.082Z,9.65
2019-02-04T23:53:42.480Z,10.43
2019-02-04T23:55:54.122Z,9.30
2019-02-04T23:57:47.472Z,9.70
2019-02-04T23:59:48.827Z,10.03
